createdAt,value
2018-03-03T00:01:02.462Z,100411.09
2018-03-03T00:02:07.385Z,100416.54
2018-03-03T00:03:12.288Z,100413.31
2018-03-03T00:04:17.002Z,100410.23
2018-03-03T00:05:21.901Z,100413.73
2018-03-03T00:06:27.698Z,100421.67
2018-03-03T00:07:32.565Z,100414.98
2018-03-03T00:08:37.586Z,100419.47
2018-03-03T00:09:42.365Z,100421.20
2018-03-03T00:10:47.506Z,100420.37
2018-03-03T00:11:52.283Z,100420.95
2018-03-03T00:12:57.119Z,100423.95
2018-03-03T00:14:02.141Z,100427.10
2018-03-03T00:15:07.778Z,100426.34
2018-03-03T00:16:12.708Z,100430.97
2018-03-03T00:17:17.854Z,100427.56
2018-03-03T00:18:23.675Z,100424.23
2018-03-03T00:19:28.462Z,100424.27
2018-03-03T00:20:33.413Z,100428.11
2018-03-03T00:21:39.130Z,100419.13
2018-03-03T00:22:44.345Z,100423.51
2018-03-03T00:23:50.667Z,100414.46
2018-03-03T00:24:55.745Z,100420.16
2018-03-03T00:26:00.698Z,100421.20
2018-03-03T00:27:05.610Z,100420.92
2018-03-03T00:28:10.555Z,100416.33
2018-03-03T00:29:15.794Z,100413.36
2018-03-03T00:30:20.767Z,100411.78
2018-03-03T00:31:26.431Z,100418.16
2018-03-03T00:32:31.385Z,100420.70
2018-03-03T00:33:37.888Z,100412.80
2018-03-03T00:34:42.929Z,100409.73
2018-03-03T00:35:48.048Z,100416.60
2018-03-03T00:36:52.969Z,100409.73
2018-03-03T00:37:57.971Z,100410.56
2018-03-03T00:39:02.968Z,100410.34
2018-03-03T00:40:07.959Z,100407.03
2018-03-03T00:41:13.064Z,100401.83
2018-03-03T00:42:18.447Z,100404.38
2018-03-03T00:43:23.297Z,100409.73
2018-03-03T00:44:28.146Z,100406.27
2018-03-03T00:45:33.220Z,100402.86
2018-03-03T00:46:38.939Z,100400.34
2018-03-03T00:47:44.226Z,100403.00
2018-03-03T00:48:49.180Z,100392.31
2018-03-03T00:49:54.019Z,100398.86
2018-03-03T00:50:58.971Z,100400.09
2018-03-03T00:52:04.140Z,100397.00
2018-03-03T00:53:09.387Z,100394.23
2018-03-03T00:54:15.306Z,100391.15
2018-03-03T00:55:20.687Z,100397.98
2018-03-03T00:56:25.644Z,100395.34
2018-03-03T00:57:30.695Z,100393.83
2018-03-03T00:58:36.625Z,100382.47
2018-03-03T00:59:41.922Z,100390.14
2018-03-03T01:00:47.555Z,100382.39
2018-03-03T01:01:53.016Z,100389.51
2018-03-03T01:02:58.271Z,100390.58
2018-03-03T01:04:03.241Z,100387.90
2018-03-03T01:05:08.477Z,100388.00
2018-03-03T01:06:13.725Z,100381.19
2018-03-03T01:07:18.756Z,100384.72
2018-03-03T01:08:24.055Z,100383.52
2018-03-03T01:09:29.120Z,100381.38
2018-03-03T01:10:34.134Z,100387.77
2018-03-03T01:11:40.364Z,100388.22
2018-03-03T01:12:45.565Z,100388.81
2018-03-03T01:13:50.526Z,100393.41
2018-03-03T01:14:56.166Z,100393.77
2018-03-03T01:16:02.519Z,100392.03
2018-03-03T01:17:07.770Z,100391.93
2018-03-03T01:18:13.053Z,100392.84
2018-03-03T01:19:18.106Z,100386.00
2018-03-03T01:20:23.249Z,100386.36
2018-03-03T01:21:28.467Z,100384.02
2018-03-03T01:22:33.664Z,100381.41
2018-03-03T01:23:38.718Z,100383.87
2018-03-03T01:24:43.540Z,100381.95
2018-03-03T01:25:48.782Z,100377.16
2018-03-03T01:26:53.838Z,100388.00
2018-03-03T01:27:59.471Z,100388.97
2018-03-03T01:29:04.795Z,100385.91
2018-03-03T01:30:12.660Z,100377.09
2018-03-03T01:31:17.973Z,100387.84
2018-03-03T01:32:23.175Z,100382.13
2018-03-03T01:33:29.034Z,100387.84
2018-03-03T01:34:34.557Z,100384.05
2018-03-03T01:35:39.555Z,100384.97
2018-03-03T01:36:44.723Z,100375.39
2018-03-03T01:37:49.979Z,100382.07
2018-03-03T01:38:55.230Z,100383.23
2018-03-03T01:40:00.442Z,100378.26
2018-03-03T01:41:06.112Z,100368.05
2018-03-03T01:42:11.383Z,100377.75
2018-03-03T01:43:16.659Z,100377.94
2018-03-03T01:44:22.062Z,100383.11
2018-03-03T01:45:28.806Z,100383.05
2018-03-03T01:46:34.653Z,100373.96
2018-03-03T01:47:40.227Z,100381.27
2018-03-03T01:48:45.567Z,100382.88
2018-03-03T01:49:50.961Z,100374.31
2018-03-03T01:50:56.278Z,100379.96
2018-03-03T01:52:01.325Z,100379.67
2018-03-03T01:53:06.636Z,100385.38
2018-03-03T01:54:11.999Z,100382.16
2018-03-03T01:55:17.312Z,100386.07
2018-03-03T01:56:22.537Z,100373.59
2018-03-03T01:57:27.727Z,100378.92
2018-03-03T01:58:32.943Z,100367.10
2018-03-03T01:59:37.843Z,100370.09
2018-03-03T02:00:44.278Z,100366.53
2018-03-03T02:01:49.482Z,100369.37
2018-03-03T02:02:54.828Z,100368.36
2018-03-03T02:04:00.391Z,100371.39
2018-03-03T02:05:05.761Z,100378.12
2018-03-03T02:06:11.266Z,100377.41
2018-03-03T02:07:16.531Z,100370.16
2018-03-03T02:08:21.734Z,100377.82
2018-03-03T02:09:27.754Z,100379.86
2018-03-03T02:10:33.158Z,100381.50
2018-03-03T02:11:38.597Z,100372.40
2018-03-03T02:12:44.550Z,100369.72
2018-03-03T02:13:49.750Z,100369.03
2018-03-03T02:14:55.187Z,100368.49
2018-03-03T02:16:01.048Z,100370.06
2018-03-03T02:17:06.508Z,100367.70
2018-03-03T02:18:11.647Z,100373.72
2018-03-03T02:19:17.418Z,100370.94
2018-03-03T02:20:22.709Z,100379.17
2018-03-03T02:21:28.075Z,100373.72
2018-03-03T02:22:33.897Z,100367.05
2018-03-03T02:23:39.211Z,100370.82
2018-03-03T02:24:44.970Z,100378.16
2018-03-03T02:25:50.359Z,100368.17
2018-03-03T02:26:55.568Z,100359.30
2018-03-03T02:28:00.826Z,100354.84
2018-03-03T02:29:05.672Z,100356.45
2018-03-03T02:30:15.288Z,100353.31
2018-03-03T02:31:20.519Z,100360.77
2018-03-03T02:32:25.659Z,100355.67
2018-03-03T02:33:30.629Z,100355.83
2018-03-03T02:34:35.860Z,100355.51
2018-03-03T02:35:41.002Z,100356.80
2018-03-03T02:36:46.882Z,100353.81
2018-03-03T02:37:52.177Z,100347.22
2018-03-03T02:38:57.641Z,100352.07
2018-03-03T02:40:02.895Z,100349.64
2018-03-03T02:41:08.074Z,100351.34
2018-03-03T02:42:13.049Z,100344.60
2018-03-03T02:43:18.976Z,100350.50
2018-03-03T02:44:23.618Z,100349.48
2018-03-03T02:45:28.961Z,100351.57
2018-03-03T02:46:34.273Z,100349.05
2018-03-03T02:47:39.480Z,100347.67
2018-03-03T02:48:44.751Z,100343.35
2018-03-03T02:49:50.240Z,100339.31
2018-03-03T02:50:55.302Z,100335.79
2018-03-03T02:52:00.699Z,100343.54
2018-03-03T02:53:05.727Z,100343.00
2018-03-03T02:54:10.989Z,100339.26
2018-03-03T02:55:16.153Z,100334.97
2018-03-03T02:56:21.109Z,100336.16
2018-03-03T02:57:27.289Z,100342.31
2018-03-03T02:58:32.541Z,100346.78
2018-03-03T02:59:37.841Z,100333.93
2018-03-03T03:00:42.935Z,100335.66
2018-03-03T03:01:50.375Z,100338.63
2018-03-03T03:02:55.739Z,100330.62
2018-03-03T03:04:00.836Z,100331.98
2018-03-03T03:05:05.818Z,100331.06
2018-03-03T03:06:10.871Z,100330.50
2018-03-03T03:07:15.763Z,100334.16
2018-03-03T03:08:20.935Z,100325.75
2018-03-03T03:09:25.642Z,100326.41
2018-03-03T03:10:31.423Z,100323.12
2018-03-03T03:11:36.595Z,100323.31
2018-03-03T03:12:41.201Z,100324.52
2018-03-03T03:13:47.173Z,100329.43
2018-03-03T03:14:52.845Z,100333.05
2018-03-03T03:15:58.116Z,100325.39
2018-03-03T03:17:03.208Z,100333.24
2018-03-03T03:18:08.198Z,100325.05
2018-03-03T03:19:13.239Z,100326.16
2018-03-03T03:20:18.681Z,100326.25
2018-03-03T03:21:24.279Z,100328.52
2018-03-03T03:22:30.981Z,100330.59
2018-03-03T03:23:37.753Z,100318.72
2018-03-03T03:24:42.902Z,100330.72
2018-03-03T03:25:48.742Z,100332.17
2018-03-03T03:26:54.052Z,100334.09
2018-03-03T03:27:59.713Z,100323.80
2018-03-03T03:29:04.695Z,100331.28
2018-03-03T03:30:10.568Z,100333.05
2018-03-03T03:31:17.505Z,100331.54
2018-03-03T03:32:23.150Z,100327.85
2018-03-03T03:33:28.358Z,100327.00
2018-03-03T03:34:33.682Z,100327.66
2018-03-03T03:35:38.843Z,100326.50
2018-03-03T03:36:43.726Z,100323.19
2018-03-03T03:37:49.130Z,100332.55
2018-03-03T03:38:54.220Z,100323.95
2018-03-03T03:39:59.288Z,100319.41
2018-03-03T03:41:04.460Z,100317.08
2018-03-03T03:42:09.064Z,100322.30
2018-03-03T03:43:14.200Z,100317.27
2018-03-03T03:44:18.977Z,100317.86
2018-03-03T03:45:24.079Z,100317.30
2018-03-03T03:46:29.514Z,100317.58
2018-03-03T03:47:34.413Z,100311.26
2018-03-03T03:48:39.162Z,100311.00
2018-03-03T03:49:44.039Z,100300.58
2018-03-03T03:50:48.834Z,100311.92
2018-03-03T03:51:54.056Z,100310.12
2018-03-03T03:53:00.587Z,100308.92
2018-03-03T03:54:05.450Z,100299.86
2018-03-03T03:55:09.805Z,100302.81
2018-03-03T03:56:15.019Z,100302.59
2018-03-03T03:57:19.748Z,100308.27
2018-03-03T03:58:25.079Z,100299.01
2018-03-03T03:59:30.917Z,100306.84
2018-03-03T04:00:35.979Z,100294.47
2018-03-03T04:01:40.881Z,100300.52
2018-03-03T04:02:45.662Z,100302.09
2018-03-03T04:03:51.399Z,100301.94
2018-03-03T04:04:56.415Z,100293.84
2018-03-03T04:06:01.061Z,100299.06
2018-03-03T04:07:05.775Z,100295.61
2018-03-03T04:08:10.604Z,100295.64
2018-03-03T04:09:15.639Z,100299.41
2018-03-03T04:10:20.506Z,100288.77
2018-03-03T04:11:25.357Z,100290.50
2018-03-03T04:15:23.503Z,100298.50
2018-03-03T04:16:29.809Z,100292.84
2018-03-03T04:17:35.694Z,100298.95
2018-03-03T04:18:42.021Z,100286.47
2018-03-03T04:19:48.378Z,100287.23
2018-03-03T04:20:56.431Z,100289.72
2018-03-03T04:22:01.821Z,100282.72
2018-03-03T04:23:08.284Z,100294.44
2018-03-03T04:24:13.482Z,100282.38
2018-03-03T04:25:19.553Z,100295.26
2018-03-03T04:26:25.124Z,100286.95
2018-03-03T04:27:31.304Z,100273.84
2018-03-03T04:28:37.088Z,100287.30
2018-03-03T04:29:41.545Z,100281.03
2018-03-03T04:30:48.587Z,100276.96
2018-03-03T04:31:53.243Z,100281.15
2018-03-03T04:32:58.922Z,100281.21
2018-03-03T04:34:04.020Z,100263.87
2018-03-03T04:35:10.146Z,100273.19
2018-03-03T04:36:16.260Z,100274.61
2018-03-03T04:37:22.246Z,100279.77
2018-03-03T04:38:29.499Z,100274.35
2018-03-03T04:39:35.530Z,100272.05
2018-03-03T04:40:41.443Z,100272.68
2018-03-03T04:41:59.031Z,100277.66
2018-03-03T04:43:04.983Z,100277.55
2018-03-03T04:44:11.121Z,100270.09
2018-03-03T04:45:18.802Z,100276.27
2018-03-03T04:46:24.040Z,100276.50
2018-03-03T04:47:36.055Z,100286.54
2018-03-03T04:48:41.964Z,100286.22
2018-03-03T04:49:49.187Z,100280.40
2018-03-03T04:50:56.986Z,100287.77
2018-03-03T04:52:02.708Z,100282.38
2018-03-03T04:53:08.481Z,100272.18
2018-03-03T04:54:14.265Z,100283.05
2018-03-03T04:55:20.287Z,100275.73
2018-03-03T04:56:25.742Z,100276.55
2018-03-03T04:57:31.192Z,100285.44
2018-03-03T04:58:37.172Z,100283.39
2018-03-03T04:59:43.470Z,100277.50
2018-03-03T05:00:50.448Z,100279.73
2018-03-03T05:01:56.971Z,100273.18
2018-03-03T05:03:03.080Z,100276.41
2018-03-03T05:04:08.776Z,100265.23
2018-03-03T05:05:14.990Z,100268.02
2018-03-03T05:06:21.260Z,100263.11
2018-03-03T05:07:27.739Z,100266.10
2018-03-03T05:08:33.301Z,100267.70
2018-03-03T05:09:38.936Z,100255.15
2018-03-03T05:10:44.269Z,100266.03
2018-03-03T05:11:50.012Z,100269.62
2018-03-03T05:12:56.423Z,100263.84
2018-03-03T05:14:02.653Z,100261.70
2018-03-03T05:15:09.621Z,100257.72
2018-03-03T05:16:16.572Z,100254.83
2018-03-03T05:17:23.094Z,100253.23
2018-03-03T05:18:29.609Z,100250.39
2018-03-03T05:19:35.499Z,100241.42
2018-03-03T05:20:42.171Z,100260.77
2018-03-03T05:21:49.207Z,100260.84
2018-03-03T05:22:56.111Z,100248.22
2018-03-03T05:24:02.703Z,100254.55
2018-03-03T05:25:08.568Z,100250.23
2018-03-03T05:26:15.581Z,100250.61
2018-03-03T05:27:22.232Z,100247.18
2018-03-03T05:28:43.608Z,100246.87
2018-03-03T05:29:50.115Z,100248.53
2018-03-03T05:30:59.162Z,100248.03
2018-03-03T05:32:05.949Z,100243.28
2018-03-03T05:33:15.374Z,100245.33
2018-03-03T05:34:21.937Z,100250.55
2018-03-03T05:35:27.563Z,100250.27
2018-03-03T05:36:35.377Z,100248.22
2018-03-03T05:37:42.222Z,100248.53
2018-03-03T05:38:48.891Z,100247.47
2018-03-03T05:39:55.835Z,100248.72
2018-03-03T05:41:03.814Z,100249.36
2018-03-03T05:42:09.683Z,100250.02
2018-03-03T05:43:15.356Z,100254.05
2018-03-03T05:44:22.811Z,100250.77
2018-03-03T05:45:29.764Z,100247.70
2018-03-03T05:46:36.604Z,100241.10
2018-03-03T05:47:42.730Z,100252.34
2018-03-03T05:48:49.215Z,100253.91
2018-03-03T05:49:55.997Z,100259.70
2018-03-03T05:51:01.554Z,100255.42
2018-03-03T05:52:07.335Z,100260.41
2018-03-03T05:53:13.819Z,100261.31
2018-03-03T05:54:19.765Z,100262.20
2018-03-03T05:55:25.969Z,100261.84
2018-03-03T05:56:31.268Z,100258.86
2018-03-03T05:57:38.329Z,100258.57
2018-03-03T05:58:44.583Z,100253.41
2018-03-03T05:59:50.973Z,100258.38
2018-03-03T06:00:59.067Z,100263.70
2018-03-03T06:02:05.032Z,100258.95
2018-03-03T06:03:11.772Z,100257.44
2018-03-03T06:04:17.361Z,100256.67
2018-03-03T06:05:25.642Z,100257.48
2018-03-03T06:06:33.115Z,100257.05
2018-03-03T06:07:38.279Z,100261.65
2018-03-03T06:08:44.160Z,100269.48
2018-03-03T06:09:51.235Z,100259.34
2018-03-03T06:10:57.392Z,100274.08
2018-03-03T06:12:03.236Z,100271.69
2018-03-03T06:13:09.435Z,100274.89
2018-03-03T06:14:14.841Z,100275.05
2018-03-03T06:15:21.597Z,100275.50
2018-03-03T06:16:27.379Z,100273.48
2018-03-03T06:17:40.368Z,100277.93
2018-03-03T06:18:45.853Z,100279.04
2018-03-03T06:19:51.815Z,100278.38
2018-03-03T06:20:58.661Z,100275.23
2018-03-03T06:22:04.904Z,100270.45
2018-03-03T06:23:12.161Z,100277.00
2018-03-03T06:24:17.901Z,100277.33
2018-03-03T06:25:23.689Z,100268.08
2018-03-03T06:26:29.958Z,100274.25
2018-03-03T06:27:46.766Z,100277.19
2018-03-03T06:28:53.513Z,100275.77
2018-03-03T06:30:00.108Z,100278.77
2018-03-03T06:31:06.772Z,100281.89
2018-03-03T06:32:13.337Z,100282.97
2018-03-03T06:33:20.037Z,100278.46
2018-03-03T06:34:28.090Z,100283.31
2018-03-03T06:35:35.745Z,100275.98
2018-03-03T06:36:41.964Z,100263.80
2018-03-03T06:37:48.966Z,100282.92
2018-03-03T06:39:10.205Z,100273.97
2018-03-03T06:40:21.518Z,100283.14
2018-03-03T06:41:34.806Z,100290.57
2018-03-03T06:42:41.604Z,100288.71
2018-03-03T06:43:49.505Z,100295.27
2018-03-03T06:45:00.740Z,100289.88
2018-03-03T06:46:07.447Z,100297.02
2018-03-03T06:47:15.869Z,100303.35
2018-03-03T06:48:24.982Z,100301.94
2018-03-03T06:49:30.915Z,100305.27
2018-03-03T06:50:37.274Z,100309.37
2018-03-03T06:51:44.874Z,100305.21
2018-03-03T06:52:52.106Z,100308.95
2018-03-03T06:53:58.429Z,100306.44
2018-03-03T06:55:05.217Z,100299.88
2018-03-03T06:57:13.377Z,100283.98
2018-03-03T06:58:19.119Z,100304.60
2018-03-03T06:59:25.076Z,100298.69
2018-03-03T07:00:30.751Z,100302.99
2018-03-03T07:01:36.050Z,100298.58
2018-03-03T07:02:41.807Z,100295.45
2018-03-03T07:03:47.108Z,100299.51
2018-03-03T07:04:52.674Z,100295.57
2018-03-03T07:06:08.209Z,100287.50
2018-03-03T07:07:13.387Z,100293.26
2018-03-03T07:08:18.863Z,100297.42
2018-03-03T07:09:24.864Z,100295.20
2018-03-03T07:10:30.389Z,100289.19
2018-03-03T07:11:41.382Z,100301.00
2018-03-03T07:12:47.285Z,100285.22
2018-03-03T07:13:52.438Z,100284.48
2018-03-03T07:14:58.146Z,100283.98
2018-03-03T07:16:04.489Z,100274.55
2018-03-03T07:17:10.857Z,100272.98
2018-03-03T07:18:15.917Z,100288.58
2018-03-03T07:19:26.803Z,100291.58
2018-03-03T07:20:32.109Z,100288.88
2018-03-03T07:21:38.189Z,100293.16
2018-03-03T07:22:43.442Z,100288.11
2018-03-03T07:23:48.579Z,100291.14
2018-03-03T07:24:53.467Z,100299.45
2018-03-03T07:25:58.882Z,100295.00
2018-03-03T07:27:03.827Z,100294.67
2018-03-03T07:28:09.525Z,100293.27
2018-03-03T07:29:16.182Z,100289.66
2018-03-03T07:30:23.141Z,100300.07
2018-03-03T07:31:28.431Z,100298.12
2018-03-03T07:32:33.926Z,100304.89
2018-03-03T07:33:39.546Z,100302.21
2018-03-03T07:34:47.819Z,100310.69
2018-03-03T07:35:52.954Z,100303.87
2018-03-03T07:36:58.425Z,100314.05
2018-03-03T07:38:03.517Z,100309.33
2018-03-03T07:39:08.416Z,100308.83
2018-03-03T07:40:13.527Z,100311.35
2018-03-03T07:41:19.226Z,100305.55
2018-03-03T07:42:24.085Z,100305.77
2018-03-03T07:43:29.660Z,100304.65
2018-03-03T07:44:34.560Z,100315.43
2018-03-03T07:45:40.809Z,100314.23
2018-03-03T07:46:46.389Z,100315.62
2018-03-03T07:47:51.371Z,100314.53
2018-03-03T07:48:56.762Z,100313.19
2018-03-03T07:50:02.288Z,100311.97
2018-03-03T07:51:07.608Z,100307.56
2018-03-03T07:52:12.435Z,100313.19
2018-03-03T07:53:18.237Z,100306.88
2018-03-03T07:54:23.229Z,100308.77
2018-03-03T07:55:28.312Z,100305.31
2018-03-03T07:56:42.425Z,100310.83
2018-03-03T07:57:47.624Z,100310.51
2018-03-03T07:58:52.880Z,100300.73
2018-03-03T07:59:57.584Z,100304.31
2018-03-03T08:01:03.850Z,100303.72
2018-03-03T08:02:08.563Z,100298.80
2018-03-03T08:03:13.619Z,100299.37
2018-03-03T08:04:18.851Z,100291.98
2018-03-03T08:05:23.683Z,100287.80
2018-03-03T08:06:28.977Z,100293.45
2018-03-03T08:07:34.315Z,100279.00
2018-03-03T08:08:39.332Z,100290.81
2018-03-03T08:09:44.155Z,100283.97
2018-03-03T08:10:49.243Z,100290.22
2018-03-03T08:11:54.063Z,100291.61
2018-03-03T08:12:59.034Z,100285.98
2018-03-03T08:14:03.858Z,100292.34
2018-03-03T08:15:09.043Z,100294.21
2018-03-03T08:16:14.632Z,100297.45
2018-03-03T08:17:19.311Z,100293.67
2018-03-03T08:18:24.192Z,100289.97
2018-03-03T08:19:29.190Z,100294.63
2018-03-03T08:20:34.015Z,100287.71
2018-03-03T08:21:39.171Z,100278.88
2018-03-03T08:22:45.204Z,100283.14
2018-03-03T08:23:50.039Z,100287.00
2018-03-03T08:24:54.844Z,100288.27
2018-03-03T08:25:59.854Z,100285.70
2018-03-03T08:27:05.014Z,100289.08
2018-03-03T08:28:09.979Z,100294.45
2018-03-03T08:29:14.718Z,100289.49
2018-03-03T08:30:20.127Z,100293.55
2018-03-03T08:31:25.041Z,100298.04
2018-03-03T08:32:30.235Z,100295.34
2018-03-03T08:33:35.371Z,100298.94
2018-03-03T08:34:41.064Z,100292.00
2018-03-03T08:35:45.869Z,100301.80
2018-03-03T08:36:51.637Z,100300.77
2018-03-03T08:37:56.470Z,100307.34
2018-03-03T08:39:02.207Z,100288.94
2018-03-03T08:40:07.074Z,100302.97
2018-03-03T08:41:11.973Z,100295.68
2018-03-03T08:42:16.710Z,100290.20
2018-03-03T08:43:21.496Z,100290.99
2018-03-03T08:44:26.367Z,100299.66
2018-03-03T08:45:32.448Z,100298.85
2018-03-03T08:46:37.348Z,100295.03
2018-03-03T08:47:42.893Z,100297.20
2018-03-03T08:48:47.761Z,100288.18
2018-03-03T08:49:52.464Z,100288.20
2018-03-03T08:50:57.109Z,100284.59
2018-03-03T08:52:01.917Z,100285.73
2018-03-03T08:53:06.622Z,100276.39
2018-03-03T08:54:11.324Z,100277.37
2018-03-03T08:55:16.149Z,100282.80
2018-03-03T08:56:20.862Z,100283.38
2018-03-03T08:57:25.685Z,100285.03
2018-03-03T08:58:30.658Z,100285.72
2018-03-03T08:59:35.284Z,100281.20
2018-03-03T09:00:40.403Z,100283.38
2018-03-03T09:01:45.870Z,100290.95
2018-03-03T09:02:50.658Z,100292.65
2018-03-03T09:03:55.463Z,100281.80
2018-03-03T09:05:00.210Z,100287.90
2018-03-03T09:06:05.731Z,100279.20
2018-03-03T09:07:10.560Z,100271.87
2018-03-03T09:08:15.399Z,100275.56
2018-03-03T09:09:20.441Z,100275.03
2018-03-03T09:10:25.188Z,100276.95
2018-03-03T09:11:29.934Z,100283.07
2018-03-03T09:12:36.136Z,100276.66
2018-03-03T09:13:41.217Z,100282.55
2018-03-03T09:14:46.642Z,100276.57
2018-03-03T09:15:52.351Z,100285.19
2018-03-03T09:16:57.040Z,100272.48
2018-03-03T09:18:01.924Z,100284.63
2018-03-03T09:19:06.668Z,100274.73
2018-03-03T09:20:11.278Z,100277.69
2018-03-03T09:21:16.091Z,100275.38
2018-03-03T09:22:21.140Z,100278.78
2018-03-03T09:23:25.970Z,100270.45
2018-03-03T09:24:30.867Z,100276.78
2018-03-03T09:25:36.176Z,100273.50
2018-03-03T09:26:41.133Z,100274.81
2018-03-03T09:27:47.576Z,100272.08
2018-03-03T09:28:52.364Z,100261.74
2018-03-03T09:29:57.159Z,100277.14
2018-03-03T09:31:01.809Z,100268.41
2018-03-03T09:32:07.020Z,100268.24
2018-03-03T09:33:11.677Z,100270.02
2018-03-03T09:34:16.893Z,100268.91
2018-03-03T09:35:21.635Z,100265.05
2018-03-03T09:36:26.696Z,100264.78
2018-03-03T09:37:31.657Z,100278.30
2018-03-03T09:38:36.475Z,100269.86
2018-03-03T09:39:41.379Z,100276.63
2018-03-03T09:40:47.472Z,100278.17
2018-03-03T09:41:52.373Z,100263.89
2018-03-03T09:42:57.831Z,100269.99
2018-03-03T09:44:03.135Z,100268.09
2018-03-03T09:45:07.959Z,100271.59
2018-03-03T09:46:12.982Z,100260.25
2018-03-03T09:47:18.104Z,100260.35
2018-03-03T09:48:23.023Z,100254.45
2018-03-03T09:49:28.019Z,100269.48
2018-03-03T09:50:32.756Z,100256.93
2018-03-03T09:51:37.471Z,100264.77
2018-03-03T09:52:42.302Z,100254.66
2018-03-03T09:53:48.353Z,100263.13
2018-03-03T09:54:53.122Z,100261.34
2018-03-03T09:55:57.920Z,100256.83
2018-03-03T09:57:02.794Z,100255.81
2018-03-03T09:58:07.801Z,100258.44
2018-03-03T09:59:12.719Z,100253.13
2018-03-03T10:00:17.691Z,100253.69
2018-03-03T10:01:22.687Z,100255.09
2018-03-03T10:02:27.751Z,100250.97
2018-03-03T10:03:32.471Z,100225.69
2018-03-03T10:04:37.518Z,100255.39
2018-03-03T10:05:42.571Z,100240.08
2018-03-03T10:06:47.300Z,100253.05
2018-03-03T10:07:52.125Z,100255.53
2018-03-03T10:08:56.804Z,100250.63
2018-03-03T10:10:01.709Z,100252.89
2018-03-03T10:11:06.739Z,100250.23
2018-03-03T10:12:11.508Z,100253.68
2018-03-03T10:13:16.134Z,100255.52
2018-03-03T10:14:21.046Z,100246.03
2018-03-03T10:15:26.379Z,100249.07
2018-03-03T10:16:31.051Z,100251.69
2018-03-03T10:17:35.875Z,100234.95
2018-03-03T10:18:40.778Z,100234.59
2018-03-03T10:19:45.424Z,100247.74
2018-03-03T10:20:50.381Z,100247.37
2018-03-03T10:21:55.300Z,100249.23
2018-03-03T10:23:00.284Z,100246.23
2018-03-03T10:24:05.022Z,100254.98
2018-03-03T10:25:09.836Z,100248.40
2018-03-03T10:26:15.111Z,100246.98
2018-03-03T10:27:19.749Z,100235.30
2018-03-03T10:28:24.401Z,100248.03
2018-03-03T10:29:29.246Z,100239.29
2018-03-03T10:30:34.034Z,100238.65
2018-03-03T10:31:39.801Z,100237.64
2018-03-03T10:32:45.078Z,100241.78
2018-03-03T10:33:49.859Z,100252.88
2018-03-03T10:34:54.861Z,100243.95
2018-03-03T10:35:59.498Z,100250.94
2018-03-03T10:37:04.242Z,100234.44
2018-03-03T10:38:09.804Z,100257.76
2018-03-03T10:39:14.488Z,100239.87
2018-03-03T10:40:19.382Z,100250.34
2018-03-03T10:41:24.518Z,100247.23
2018-03-03T10:42:29.468Z,100254.83
2018-03-03T10:43:34.233Z,100252.27
2018-03-03T10:44:39.020Z,100258.53
2018-03-03T10:45:44.918Z,100249.09
2018-03-03T10:46:49.693Z,100251.95
2018-03-03T10:47:54.917Z,100239.52
2018-03-03T10:48:59.734Z,100252.59
2018-03-03T10:50:04.557Z,100240.53
2018-03-03T10:51:09.344Z,100246.12
2018-03-03T10:52:14.222Z,100240.22
2018-03-03T10:53:18.954Z,100245.03
2018-03-03T10:54:23.651Z,100242.33
2018-03-03T10:55:28.727Z,100236.72
2018-03-03T10:56:33.604Z,100240.30
2018-03-03T10:57:38.547Z,100232.02
2018-03-03T10:58:43.446Z,100244.52
2018-03-03T10:59:48.706Z,100232.82
2018-03-03T11:00:53.434Z,100230.86
2018-03-03T11:01:58.217Z,100236.98
2018-03-03T11:03:02.893Z,100228.39
2018-03-03T11:04:07.744Z,100228.50
2018-03-03T11:05:14.360Z,100216.83
2018-03-03T11:06:19.418Z,100232.27
2018-03-03T11:07:24.126Z,100219.50
2018-03-03T11:08:29.151Z,100224.73
2018-03-03T11:09:33.903Z,100229.59
2018-03-03T11:10:38.780Z,100228.28
2018-03-03T11:11:44.733Z,100233.25
2018-03-03T11:12:50.667Z,100228.33
2018-03-03T11:13:55.426Z,100229.25
2018-03-03T11:15:00.203Z,100229.12
2018-03-03T11:16:04.969Z,100230.69
2018-03-03T11:17:09.703Z,100211.70
2018-03-03T11:18:14.323Z,100214.95
2018-03-03T11:19:19.068Z,100224.00
2018-03-03T11:20:24.015Z,100220.51
2018-03-03T11:21:28.863Z,100221.64
2018-03-03T11:22:33.766Z,100214.50
2018-03-03T11:23:38.500Z,100220.23
2018-03-03T11:24:43.444Z,100211.92
2018-03-03T11:25:50.134Z,100206.85
2018-03-03T11:26:54.946Z,100206.91
2018-03-03T11:27:59.750Z,100208.32
2018-03-03T11:29:04.610Z,100205.82
2018-03-03T11:30:09.829Z,100208.91
2018-03-03T11:31:14.762Z,100209.54
2018-03-03T11:32:19.848Z,100210.79
2018-03-03T11:33:24.694Z,100206.62
2018-03-03T11:34:29.644Z,100199.34
2018-03-03T11:35:34.520Z,100195.45
2018-03-03T11:36:40.267Z,100207.66
2018-03-03T11:37:45.048Z,100200.52
2018-03-03T11:38:51.084Z,100204.33
2018-03-03T11:39:55.868Z,100201.47
2018-03-03T11:41:00.602Z,100192.88
2018-03-03T11:42:05.258Z,100196.47
2018-03-03T11:43:11.036Z,100180.86
2018-03-03T11:44:15.819Z,100192.66
2018-03-03T11:45:20.982Z,100199.16
2018-03-03T11:46:25.854Z,100200.64
2018-03-03T11:47:30.638Z,100193.63
2018-03-03T11:48:35.620Z,100200.55
2018-03-03T11:49:40.409Z,100195.31
2018-03-03T11:50:45.447Z,100193.90
2018-03-03T11:51:50.093Z,100191.88
2018-03-03T11:52:54.884Z,100192.01
2018-03-03T11:53:59.701Z,100195.51
2018-03-03T11:55:04.561Z,100188.78
2018-03-03T11:56:09.302Z,100188.84
2018-03-03T11:57:14.259Z,100190.20
2018-03-03T11:58:19.632Z,100186.37
2018-03-03T11:59:24.358Z,100188.04
2018-03-03T12:00:29.820Z,100175.70
2018-03-03T12:01:34.530Z,100175.41
2018-03-03T12:02:39.318Z,100172.77
2018-03-03T12:03:44.341Z,100168.38
2018-03-03T12:04:50.042Z,100172.27
2018-03-03T12:05:54.797Z,100170.43
2018-03-03T12:06:59.550Z,100172.48
2018-03-03T12:08:04.292Z,100172.53
2018-03-03T12:09:09.081Z,100177.93
2018-03-03T12:10:14.721Z,100176.20
2018-03-03T12:11:20.488Z,100173.20
2018-03-03T12:12:25.237Z,100162.98
2018-03-03T12:13:30.118Z,100177.00
2018-03-03T12:14:35.047Z,100171.01
2018-03-03T12:15:40.599Z,100163.98
2018-03-03T12:16:45.352Z,100171.84
2018-03-03T12:17:50.616Z,100168.82
2018-03-03T12:18:55.427Z,100167.04
2018-03-03T12:20:00.222Z,100168.81
2018-03-03T12:21:05.332Z,100168.36
2018-03-03T12:22:10.091Z,100167.08
2018-03-03T12:23:15.825Z,100171.83
2018-03-03T12:24:20.580Z,100160.41
2018-03-03T12:25:25.505Z,100163.97
2018-03-03T12:26:30.614Z,100166.20
2018-03-03T12:27:35.708Z,100174.92
2018-03-03T12:28:40.748Z,100168.39
2018-03-03T12:29:45.382Z,100174.53
2018-03-03T12:30:50.246Z,100171.87
2018-03-03T12:31:55.020Z,100168.41
2018-03-03T12:32:59.827Z,100176.72